Terminal Aerodrome Forecast
Issued by NWS

Home | Current Version | Previous Version | Text Only | Print | Product List | Glossary On
Versions: 1 2 3 4 5 6 7 8 9 10 11 12 13 14 15 16 17 18 19 20 21
000
FTUS41 KBOX 252322
TAFBAF
TAF
KBAF 252322Z 2600/2624 17011G16KT P6SM -RA BKN021 OVC070
     FM260045 22008KT 5SM -TSRA OVC020CB
     FM260200 27011G24KT 5SM -SHRA OVC030
     FM260300 31012G28KT 5SM -SHRA OVC040
     FM260400 31012G29KT P6SM VCSH BKN050
     FM260600 31012G31KT P6SM SCT150
     FM261300 29015G30KT P6SM BKN040
     FM262200 29014G22KT P6SM SCT150=

USA.gov is the U.S. government's official web portal to all federal, state and local government web resources and services.